createdAt,value
2022-09-15T00:00:08.932Z,100.00
2022-09-15T00:02:35.762Z,100.00
2022-09-15T00:05:03.109Z,100.00
2022-09-15T00:07:31.247Z,100.00
2022-09-15T00:09:58.030Z,100.00
2022-09-15T00:12:25.140Z,100.00
2022-09-15T00:14:51.845Z,100.00
2022-09-15T00:17:18.613Z,100.00
2022-09-15T00:19:45.708Z,100.00
2022-09-15T00:22:12.418Z,100.00
2022-09-15T00:24:39.136Z,100.00
2022-09-15T00:27:05.959Z,100.00
2022-09-15T00:29:32.660Z,100.00
2022-09-15T00:31:59.338Z,100.00
2022-09-15T00:34:26.103Z,100.00
2022-09-15T00:36:52.754Z,100.00
2022-09-15T00:39:19.493Z,100.00
2022-09-15T00:41:46.199Z,100.00
2022-09-15T00:44:18.740Z,100.00
2022-09-15T00:47:04.051Z,100.00
2022-09-15T00:49:38.860Z,100.00
2022-09-15T00:52:10.174Z,100.00
2022-09-15T00:55:05.777Z,100.00
2022-09-15T00:57:47.738Z,100.00
2022-09-15T01:00:18.635Z,100.00
2022-09-15T01:02:47.403Z,100.00
2022-09-15T01:05:17.723Z,100.00
2022-09-15T01:07:56.315Z,100.00
2022-09-15T01:10:31.793Z,100.00
2022-09-15T01:13:06.998Z,100.00
2022-09-15T01:15:42.743Z,100.00
2022-09-15T01:18:18.611Z,100.00
2022-09-15T01:21:09.015Z,100.00
2022-09-15T01:24:00.103Z,100.00
2022-09-15T01:27:09.653Z,100.00
2022-09-15T01:29:55.135Z,100.00
2022-09-15T01:33:05.445Z,100.00
2022-09-15T01:35:56.054Z,100.00
2022-09-15T01:38:51.066Z,100.00
2022-09-15T01:41:37.828Z,100.00
2022-09-15T01:44:12.141Z,100.00
2022-09-15T01:46:48.711Z,100.00
2022-09-15T01:49:23.105Z,100.00
2022-09-15T01:51:52.427Z,100.00
2022-09-15T01:54:39.144Z,100.00
2022-09-15T01:57:05.964Z,100.00
2022-09-15T01:59:34.736Z,100.00
2022-09-15T02:02:10.135Z,100.00
2022-09-15T02:05:03.558Z,100.00
2022-09-15T02:07:57.110Z,100.00
2022-09-15T02:10:34.123Z,100.00
2022-09-15T02:13:11.683Z,100.00
2022-09-15T02:15:47.106Z,100.00
2022-09-15T02:18:17.932Z,100.00
2022-09-15T02:20:57.800Z,100.00
2022-09-15T02:23:36.869Z,100.00
2022-09-15T02:26:10.068Z,100.00
2022-09-15T02:28:39.636Z,100.00
2022-09-15T02:31:11.983Z,100.00
2022-09-15T02:33:49.818Z,100.00
2022-09-15T02:36:20.300Z,100.00
2022-09-15T02:38:54.247Z,100.00
2022-09-15T02:41:21.412Z,100.00
2022-09-15T02:43:49.375Z,100.00
2022-09-15T02:46:20.139Z,100.00
2022-09-15T02:48:47.269Z,100.00
2022-09-15T02:51:14.475Z,100.00
2022-09-15T02:53:41.284Z,100.00
2022-09-15T02:56:07.988Z,100.00
2022-09-15T02:58:35.043Z,100.00
2022-09-15T03:01:04.470Z,100.00
2022-09-15T03:03:35.019Z,100.00
2022-09-15T03:06:16.937Z,100.00
2022-09-15T03:08:43.602Z,100.00
2022-09-15T03:11:12.305Z,100.00
2022-09-15T03:13:40.098Z,100.00
2022-09-15T03:16:11.593Z,100.00
2022-09-15T03:18:39.575Z,100.00
2022-09-15T03:21:09.117Z,100.00
2022-09-15T03:23:36.025Z,100.00
2022-09-15T03:26:03.930Z,100.00
2022-09-15T03:28:30.691Z,100.00
2022-09-15T03:30:57.649Z,100.00
2022-09-15T03:33:24.911Z,100.00
2022-09-15T03:35:52.964Z,100.00
2022-09-15T03:38:20.081Z,100.00
2022-09-15T03:41:08.526Z,100.00
2022-09-15T03:43:36.334Z,100.00
2022-09-15T03:46:05.715Z,100.00
2022-09-15T03:48:35.623Z,100.00
2022-09-15T03:51:05.766Z,100.00
2022-09-15T03:53:34.454Z,100.00
2022-09-15T03:56:22.794Z,100.00
2022-09-15T03:58:49.656Z,100.00
2022-09-15T04:01:17.397Z,100.00
2022-09-15T04:03:48.820Z,100.00
2022-09-15T04:06:19.481Z,100.00
2022-09-15T04:08:46.251Z,100.00
2022-09-15T04:11:13.983Z,100.00
2022-09-15T04:13:42.406Z,100.00
2022-09-15T04:16:12.862Z,100.00
2022-09-15T04:18:39.977Z,100.00
2022-09-15T04:21:09.425Z,100.00
2022-09-15T04:23:36.299Z,100.00
2022-09-15T04:26:06.045Z,100.00
2022-09-15T04:28:35.258Z,100.00
2022-09-15T04:31:13.401Z,100.00
2022-09-15T04:33:42.071Z,100.00
2022-09-15T04:36:11.901Z,100.00
2022-09-15T04:38:38.995Z,100.00
2022-09-15T04:41:06.541Z,100.00
2022-09-15T04:43:33.851Z,100.00
2022-09-15T04:46:00.896Z,100.00
2022-09-15T04:48:28.428Z,100.00
2022-09-15T04:50:55.127Z,100.00
2022-09-15T04:53:23.653Z,100.00
2022-09-15T04:55:50.304Z,100.00
2022-09-15T04:58:16.946Z,100.00
2022-09-15T05:00:43.756Z,100.00
2022-09-15T05:03:11.679Z,100.00
2022-09-15T05:05:39.055Z,100.00
2022-09-15T05:08:06.869Z,100.00
2022-09-15T05:10:38.259Z,100.00
2022-09-15T05:13:04.886Z,100.00
2022-09-15T05:15:31.616Z,100.00
2022-09-15T05:17:58.598Z,100.00
2022-09-15T05:20:25.936Z,100.00
2022-09-15T05:22:52.836Z,100.00
2022-09-15T05:25:19.535Z,100.00
2022-09-15T05:27:46.336Z,100.00
2022-09-15T05:32:59.732Z,100.00
2022-09-15T05:35:26.661Z,100.00
2022-09-15T05:37:53.323Z,100.00
2022-09-15T05:40:21.895Z,100.00
2022-09-15T05:42:48.660Z,100.00
2022-09-15T05:45:15.624Z,100.00
2022-09-15T05:47:42.371Z,100.00
2022-09-15T05:50:09.629Z,100.00
2022-09-15T05:52:36.278Z,100.00
2022-09-15T05:55:03.028Z,100.00
2022-09-15T05:57:29.694Z,100.00
2022-09-15T05:59:56.323Z,100.00
2022-09-15T06:02:23.089Z,100.00
2022-09-15T06:04:49.904Z,100.00
2022-09-15T06:07:16.832Z,100.00
2022-09-15T06:09:44.076Z,100.00
2022-09-15T06:12:10.910Z,100.00
2022-09-15T06:14:37.548Z,100.00
2022-09-15T06:17:04.230Z,100.00
2022-09-15T06:19:31.257Z,100.00
2022-09-15T06:21:57.913Z,100.00
2022-09-15T06:24:24.650Z,100.00
2022-09-15T06:26:51.374Z,100.00
2022-09-15T06:29:18.122Z,100.00
2022-09-15T06:31:44.908Z,100.00
2022-09-15T06:34:11.922Z,100.00
2022-09-15T06:36:39.201Z,100.00
2022-09-15T06:39:05.931Z,100.00
2022-09-15T06:41:58.460Z,100.00
2022-09-15T06:44:19.920Z,100.00
2022-09-15T06:46:46.745Z,100.00
2022-09-15T06:49:14.119Z,100.00
2022-09-15T06:51:40.788Z,100.00
2022-09-15T06:54:07.625Z,100.00
2022-09-15T06:56:37.844Z,100.00
2022-09-15T06:59:05.162Z,100.00
2022-09-15T07:01:33.169Z,100.00
2022-09-15T07:04:01.527Z,100.00
2022-09-15T07:06:30.885Z,100.00
2022-09-15T07:08:58.700Z,100.00
2022-09-15T07:11:25.724Z,100.00
2022-09-15T07:13:52.596Z,100.00
2022-09-15T07:16:20.845Z,100.00
2022-09-15T07:18:48.576Z,100.00
2022-09-15T07:21:20.508Z,95.27
2022-09-15T07:23:48.297Z,97.07
2022-09-15T07:26:26.404Z,90.35
2022-09-15T07:29:01.094Z,86.81
2022-09-15T07:31:31.429Z,85.55
2022-09-15T07:34:01.731Z,85.45
2022-09-15T07:36:29.506Z,80.89
2022-09-15T07:38:56.387Z,82.55
2022-09-15T07:41:26.497Z,78.45
2022-09-15T07:43:55.515Z,77.02
2022-09-15T07:46:23.844Z,75.22
2022-09-15T07:48:53.236Z,74.66
2022-09-15T07:51:20.223Z,72.96
2022-09-15T07:53:48.259Z,69.20
2022-09-15T07:56:18.430Z,69.10
2022-09-15T07:58:45.939Z,67.45
2022-09-15T08:01:14.774Z,64.24
2022-09-15T08:03:43.076Z,61.66
2022-09-15T08:06:10.221Z,61.12
2022-09-15T08:08:41.100Z,60.09
2022-09-15T08:11:09.600Z,58.24
2022-09-15T08:13:37.152Z,57.52
2022-09-15T08:16:09.777Z,56.96
2022-09-15T08:18:36.943Z,56.34
2022-09-15T08:21:08.195Z,55.39
2022-09-15T08:23:35.130Z,55.69
2022-09-15T08:26:01.956Z,56.74
2022-09-15T08:28:28.645Z,54.87
2022-09-15T08:31:04.607Z,52.98
2022-09-15T08:33:31.890Z,51.65
2022-09-15T08:36:08.378Z,49.70
2022-09-15T08:38:35.177Z,51.43
2022-09-15T08:41:14.676Z,51.47
2022-09-15T08:43:48.015Z,51.42
2022-09-15T08:46:21.087Z,51.46
2022-09-15T08:49:23.485Z,51.06
2022-09-15T08:51:56.164Z,49.98
2022-09-15T08:54:29.389Z,50.26
2022-09-15T08:56:57.609Z,50.86
2022-09-15T08:59:27.632Z,51.00
2022-09-15T09:01:57.452Z,48.75
2022-09-15T09:04:59.424Z,48.49
2022-09-15T09:07:53.016Z,48.40
2022-09-15T09:10:25.365Z,48.10
2022-09-15T09:13:07.112Z,47.63
2022-09-15T09:15:50.244Z,46.03
2022-09-15T09:18:38.415Z,47.44
2022-09-15T09:21:26.833Z,47.19
2022-09-15T09:24:05.576Z,47.72
2022-09-15T09:26:36.608Z,47.01
2022-09-15T09:29:19.019Z,45.84
2022-09-15T09:31:52.981Z,44.98
2022-09-15T09:34:47.247Z,45.33
2022-09-15T09:37:16.744Z,46.40
2022-09-15T09:39:43.411Z,46.52
2022-09-15T09:42:18.398Z,46.06
2022-09-15T09:44:46.862Z,44.47
2022-09-15T09:47:14.179Z,43.37
2022-09-15T09:49:47.134Z,42.46
2022-09-15T09:52:16.188Z,42.65
2022-09-15T09:54:46.558Z,41.51
2022-09-15T09:57:13.146Z,42.18
2022-09-15T09:59:45.697Z,41.48
2022-09-15T10:02:12.274Z,40.45
2022-09-15T10:04:40.822Z,40.27
2022-09-15T10:07:08.832Z,40.26
2022-09-15T10:09:36.891Z,40.10
2022-09-15T10:12:05.610Z,40.35
2022-09-15T10:14:42.325Z,40.38
2022-09-15T10:17:18.960Z,40.21
2022-09-15T10:19:57.854Z,40.15
2022-09-15T10:22:33.714Z,39.53
2022-09-15T10:25:02.751Z,39.51
2022-09-15T10:27:32.873Z,39.08
2022-09-15T10:30:20.059Z,38.25
2022-09-15T10:32:47.476Z,38.37
2022-09-15T10:35:19.156Z,38.95
2022-09-15T10:37:45.835Z,39.08
2022-09-15T10:40:39.292Z,39.13
2022-09-15T10:43:22.606Z,39.16
2022-09-15T10:45:58.648Z,39.48
2022-09-15T10:48:40.021Z,38.40
2022-09-15T10:51:09.684Z,38.71
2022-09-15T10:53:42.457Z,38.87
2022-09-15T10:56:23.293Z,38.60
2022-09-15T10:59:03.609Z,38.68
2022-09-15T11:01:50.028Z,38.38
2022-09-15T11:04:38.834Z,37.44
2022-09-15T11:07:32.822Z,36.59
2022-09-15T11:10:28.724Z,37.26
2022-09-15T11:13:23.222Z,37.15
2022-09-15T11:16:07.587Z,36.24
2022-09-15T11:19:01.892Z,35.76
2022-09-15T11:22:13.810Z,35.96
2022-09-15T11:24:43.266Z,36.25
2022-09-15T11:27:28.246Z,36.59
2022-09-15T11:30:06.520Z,36.18
2022-09-15T11:32:42.698Z,36.65
2022-09-15T11:35:34.648Z,35.03
2022-09-15T11:38:35.822Z,34.90
2022-09-15T11:41:20.199Z,34.85
2022-09-15T11:44:07.413Z,34.47
2022-09-15T11:46:59.904Z,35.58
2022-09-15T11:49:55.333Z,34.51
2022-09-15T11:52:22.751Z,35.17
2022-09-15T11:54:54.181Z,34.46
2022-09-15T11:57:28.423Z,34.15
2022-09-15T12:00:03.870Z,33.45
2022-09-15T12:02:40.289Z,32.94
2022-09-15T12:05:35.154Z,33.47
2022-09-15T12:08:23.587Z,33.36
2022-09-15T12:10:53.794Z,34.08
2022-09-15T12:13:24.242Z,32.67
2022-09-15T12:15:52.274Z,32.10
2022-09-15T12:18:39.885Z,32.94
2022-09-15T12:21:30.556Z,32.65
2022-09-15T12:24:22.243Z,32.35
2022-09-15T12:26:49.637Z,32.70
2022-09-15T12:29:22.481Z,33.18
2022-09-15T12:31:49.235Z,32.13
2022-09-15T12:34:25.088Z,31.80
2022-09-15T12:37:06.867Z,31.96
2022-09-15T12:39:46.788Z,32.31
2022-09-15T12:42:18.717Z,32.47
2022-09-15T12:44:59.842Z,32.57
2022-09-15T12:47:35.576Z,32.37
2022-09-15T12:50:27.483Z,31.17
2022-09-15T12:53:01.196Z,30.86
2022-09-15T12:55:36.006Z,31.68
2022-09-15T12:58:16.126Z,30.64
2022-09-15T13:01:14.314Z,30.45
2022-09-15T13:06:26.073Z,30.23
2022-09-15T13:09:01.781Z,30.54
2022-09-15T13:11:34.970Z,29.87
2022-09-15T13:14:06.932Z,30.04
2022-09-15T13:16:48.828Z,29.77
2022-09-15T13:19:44.298Z,30.36
2022-09-15T13:22:11.132Z,29.94
2022-09-15T13:24:44.591Z,29.68
2022-09-15T13:27:13.485Z,29.22
2022-09-15T13:29:54.878Z,29.68
2022-09-15T13:32:36.698Z,29.41
2022-09-15T13:35:20.521Z,29.21
2022-09-15T13:38:11.431Z,28.59
2022-09-15T13:40:51.242Z,28.60
2022-09-15T13:43:45.635Z,29.64
2022-09-15T13:46:21.704Z,29.59
2022-09-15T13:49:19.490Z,30.89
2022-09-15T13:51:59.836Z,31.29
2022-09-15T13:54:26.886Z,31.93
2022-09-15T13:56:53.819Z,31.98
2022-09-15T13:59:28.646Z,31.70
2022-09-15T14:01:56.964Z,31.79
2022-09-15T14:04:31.032Z,31.73
2022-09-15T14:07:02.040Z,31.73
2022-09-15T14:09:31.392Z,32.24
2022-09-15T14:12:03.343Z,32.41
2022-09-15T14:14:39.033Z,33.22
2022-09-15T14:17:06.186Z,33.01
2022-09-15T14:19:38.556Z,32.43
2022-09-15T14:22:34.940Z,32.43
2022-09-15T14:25:15.144Z,32.60
2022-09-15T14:27:45.678Z,32.83
2022-09-15T14:30:19.681Z,35.04
2022-09-15T14:32:49.890Z,37.50
2022-09-15T14:35:20.460Z,38.58
2022-09-15T14:37:55.231Z,39.53
2022-09-15T14:40:29.754Z,39.44
2022-09-15T14:42:57.122Z,40.33
2022-09-15T14:45:57.995Z,40.62
2022-09-15T14:48:28.355Z,41.32
2022-09-15T14:51:05.034Z,41.37
2022-09-15T14:53:35.671Z,42.02
2022-09-15T14:56:11.863Z,42.68
2022-09-15T14:59:01.934Z,43.65
2022-09-15T15:01:36.746Z,43.36
2022-09-15T15:04:20.158Z,44.32
2022-09-15T15:07:04.333Z,44.25
2022-09-15T15:09:39.945Z,45.60
2022-09-15T15:12:16.481Z,45.45
2022-09-15T15:14:43.515Z,46.24
2022-09-15T15:17:27.461Z,46.11
2022-09-15T15:20:06.407Z,46.19
2022-09-15T15:22:33.264Z,47.15
2022-09-15T15:25:00.283Z,47.53
2022-09-15T15:27:32.740Z,47.93
2022-09-15T15:30:30.468Z,47.66
2022-09-15T15:33:24.368Z,47.46
2022-09-15T15:36:03.109Z,48.14
2022-09-15T15:38:34.539Z,48.73
2022-09-15T15:41:03.765Z,48.63
2022-09-15T15:43:30.618Z,49.68
2022-09-15T15:46:03.263Z,50.28
2022-09-15T15:48:38.175Z,51.91
2022-09-15T15:51:07.181Z,52.89
2022-09-15T15:53:34.519Z,54.16
2022-09-15T15:56:01.438Z,55.12
2022-09-15T15:58:28.239Z,56.86
2022-09-15T16:00:56.872Z,58.38
2022-09-15T16:03:24.941Z,59.67
2022-09-15T16:05:54.796Z,61.50
2022-09-15T16:08:31.892Z,63.19
2022-09-15T16:11:01.648Z,65.06
2022-09-15T16:13:29.088Z,66.44
2022-09-15T16:15:57.991Z,68.02
2022-09-15T16:18:24.933Z,68.93
2022-09-15T16:20:52.131Z,70.42
2022-09-15T16:23:22.979Z,71.41
2022-09-15T16:25:53.608Z,72.78
2022-09-15T16:28:20.629Z,73.71
2022-09-15T16:30:47.448Z,73.56
2022-09-15T16:33:15.940Z,73.86
2022-09-15T16:35:55.803Z,74.81
2022-09-15T16:38:25.627Z,74.35
2022-09-15T16:40:52.566Z,75.15
2022-09-15T16:43:22.739Z,76.00
2022-09-15T16:45:51.452Z,75.83
2022-09-15T16:48:18.722Z,77.04
2022-09-15T16:51:09.041Z,78.06
2022-09-15T16:53:33.768Z,79.44
2022-09-15T16:56:00.576Z,81.30
2022-09-15T16:58:27.832Z,82.49
2022-09-15T17:00:54.879Z,82.01
2022-09-15T17:03:24.149Z,83.75
2022-09-15T17:05:53.478Z,84.61
2022-09-15T17:08:23.987Z,86.07
2022-09-15T17:10:53.214Z,87.70
2022-09-15T17:13:26.445Z,85.08
2022-09-15T17:15:56.629Z,84.70
2022-09-15T17:18:23.718Z,85.26
2022-09-15T17:20:52.155Z,84.50
2022-09-15T17:23:24.746Z,84.38
2022-09-15T17:25:53.206Z,85.44
2022-09-15T17:28:22.609Z,85.46
2022-09-15T17:30:52.235Z,86.19
2022-09-15T17:33:21.018Z,85.03
2022-09-15T17:35:48.721Z,83.89
2022-09-15T17:38:16.525Z,82.10
2022-09-15T17:40:43.250Z,83.50
2022-09-15T17:43:21.144Z,83.49
2022-09-15T17:45:49.513Z,82.68
2022-09-15T17:48:16.916Z,83.83
2022-09-15T17:50:46.384Z,84.35
2022-09-15T17:53:14.220Z,84.05
2022-09-15T17:55:42.909Z,84.33
2022-09-15T17:58:10.426Z,83.28
2022-09-15T18:00:39.761Z,82.96
2022-09-15T18:03:34.829Z,83.99
2022-09-15T18:06:07.430Z,85.04
2022-09-15T18:08:36.108Z,87.83
2022-09-15T18:11:04.006Z,88.22
2022-09-15T18:13:31.340Z,89.62
2022-09-15T18:16:02.964Z,90.70
2022-09-15T18:18:30.443Z,89.69
2022-09-15T18:20:58.598Z,88.97
2022-09-15T18:23:28.571Z,92.31
2022-09-15T18:25:55.587Z,95.33
2022-09-15T18:28:22.455Z,97.42
2022-09-15T18:30:50.433Z,99.28
2022-09-15T18:33:21.936Z,100.00
2022-09-15T18:35:50.798Z,100.00
2022-09-15T18:38:18.937Z,100.00
2022-09-15T18:40:47.724Z,100.00
2022-09-15T18:43:14.425Z,100.00
2022-09-15T18:45:42.661Z,100.00
2022-09-15T18:48:12.861Z,100.00
2022-09-15T18:50:41.748Z,100.00
2022-09-15T18:53:08.659Z,100.00
2022-09-15T18:55:35.434Z,100.00
2022-09-15T18:58:02.791Z,100.00
2022-09-15T19:00:29.914Z,100.00
2022-09-15T19:02:58.453Z,100.00
2022-09-15T19:05:27.017Z,100.00
2022-09-15T19:07:54.048Z,100.00
2022-09-15T19:10:21.284Z,100.00
2022-09-15T19:12:47.954Z,100.00
2022-09-15T19:15:15.424Z,100.00
2022-09-15T19:17:43.315Z,100.00
2022-09-15T19:20:14.804Z,100.00
2022-09-15T19:22:42.352Z,100.00
2022-09-15T19:25:11.049Z,100.00
2022-09-15T19:27:38.895Z,100.00
2022-09-15T19:30:07.368Z,100.00
2022-09-15T19:32:34.250Z,100.00
2022-09-15T19:35:00.903Z,100.00
2022-09-15T19:37:27.667Z,100.00
2022-09-15T19:39:54.941Z,100.00
2022-09-15T19:42:21.686Z,100.00
2022-09-15T19:44:49.532Z,100.00
2022-09-15T19:47:16.303Z,100.00
2022-09-15T19:49:43.142Z,100.00
2022-09-15T19:52:09.879Z,100.00
2022-09-15T19:54:36.791Z,100.00
2022-09-15T19:57:04.406Z,100.00
2022-09-15T19:59:32.112Z,100.00
2022-09-15T20:02:00.865Z,100.00
2022-09-15T20:04:29.158Z,100.00
2022-09-15T20:06:55.875Z,100.00
2022-09-15T20:09:24.118Z,100.00
2022-09-15T20:11:51.203Z,100.00
2022-09-15T20:14:17.923Z,100.00
2022-09-15T20:16:44.678Z,100.00
2022-09-15T20:19:11.795Z,100.00
2022-09-15T20:21:55.281Z,100.00
2022-09-15T20:24:23.915Z,100.00
2022-09-15T20:26:51.041Z,100.00
2022-09-15T20:29:18.011Z,100.00
2022-09-15T20:31:45.041Z,100.00
2022-09-15T20:34:11.838Z,100.00
2022-09-15T20:36:39.382Z,100.00
2022-09-15T20:39:10.566Z,100.00
2022-09-15T20:41:37.876Z,100.00
2022-09-15T20:44:06.261Z,100.00
2022-09-15T20:46:33.665Z,100.00
2022-09-15T20:49:01.579Z,100.00
2022-09-15T20:51:31.740Z,100.00
2022-09-15T20:54:00.151Z,100.00
2022-09-15T20:56:29.154Z,100.00
2022-09-15T20:58:58.556Z,100.00
2022-09-15T21:01:32.819Z,100.00
2022-09-15T21:03:59.895Z,100.00
2022-09-15T21:06:28.087Z,100.00
2022-09-15T21:08:56.848Z,100.00
2022-09-15T21:11:25.164Z,100.00
2022-09-15T21:13:52.349Z,100.00
2022-09-15T21:16:21.493Z,100.00
2022-09-15T21:18:50.255Z,100.00
2022-09-15T21:21:18.096Z,100.00
2022-09-15T21:23:47.293Z,100.00
2022-09-15T21:26:17.415Z,100.00
2022-09-15T21:28:45.180Z,100.00
2022-09-15T21:31:19.105Z,100.00
2022-09-15T21:33:47.895Z,100.00
2022-09-15T21:36:26.206Z,100.00
2022-09-15T21:38:54.778Z,100.00
2022-09-15T21:41:23.272Z,100.00
2022-09-15T21:43:59.177Z,100.00
2022-09-15T21:46:28.127Z,100.00
2022-09-15T21:48:57.593Z,100.00
2022-09-15T21:51:26.223Z,100.00
2022-09-15T21:53:54.676Z,100.00
2022-09-15T21:56:21.996Z,100.00
2022-09-15T21:58:48.763Z,100.00
2022-09-15T22:01:17.032Z,100.00
2022-09-15T22:03:43.860Z,100.00
2022-09-15T22:06:12.204Z,100.00
2022-09-15T22:08:40.020Z,100.00
2022-09-15T22:11:07.945Z,100.00
2022-09-15T22:13:37.773Z,100.00
2022-09-15T22:16:13.950Z,100.00
2022-09-15T22:18:41.594Z,100.00
2022-09-15T22:21:19.675Z,100.00
2022-09-15T22:23:48.261Z,100.00
2022-09-15T22:26:28.994Z,100.00
2022-09-15T22:28:56.603Z,100.00
2022-09-15T22:31:24.631Z,100.00
2022-09-15T22:33:51.895Z,100.00
2022-09-15T22:36:27.949Z,100.00
2022-09-15T22:38:56.414Z,100.00
2022-09-15T22:41:25.983Z,100.00
2022-09-15T22:43:52.970Z,100.00
2022-09-15T22:46:20.986Z,100.00
2022-09-15T22:48:47.922Z,100.00
2022-09-15T22:51:15.538Z,100.00
2022-09-15T22:53:42.448Z,100.00
2022-09-15T22:56:14.129Z,100.00
2022-09-15T22:58:43.930Z,100.00
2022-09-15T23:01:16.391Z,100.00
2022-09-15T23:03:44.060Z,100.00
2022-09-15T23:06:10.957Z,100.00
2022-09-15T23:08:37.875Z,100.00
2022-09-15T23:11:07.687Z,100.00
2022-09-15T23:13:34.817Z,100.00
2022-09-15T23:16:02.262Z,100.00
2022-09-15T23:18:29.539Z,100.00
2022-09-15T23:20:58.485Z,100.00
2022-09-15T23:23:26.075Z,100.00
2022-09-15T23:25:53.099Z,100.00
2022-09-15T23:28:20.290Z,100.00
2022-09-15T23:30:51.728Z,100.00
2022-09-15T23:33:18.701Z,100.00
2022-09-15T23:35:45.882Z,100.00
2022-09-15T23:38:13.120Z,100.00
2022-09-15T23:40:43.910Z,100.00
2022-09-15T23:43:11.440Z,100.00
2022-09-15T23:45:38.674Z,100.00
2022-09-15T23:48:06.767Z,100.00
2022-09-15T23:50:33.706Z,100.00
2022-09-15T23:53:00.548Z,100.00
2022-09-15T23:55:27.537Z,100.00
2022-09-15T23:57:54.542Z,100.00
